Airport View

Enter AWOS ICAO identifier for current METAR.

ex. KFNL

KFOD 221756Z AUTO 01008G17KT 10SM FEW045 23/13 A3025 RMK AO2 SLP264 T02280133 10228 20161 50005

22 Jul 2019 18:47

Frequency: 118.775

Phone: 515-955-5490

Other Area AWOS: KEBS - KCAV - KAXA - KBNW

TAF KFOD 221722Z 2218/2318 36011G18KT P6SM SCT040 FM230100 35005KT P6SM SKC FM231500 34005KT P6SM SCT050